Time;durP1;ratioP1;P1;durP2;ratioP2;P2;SDS_P1;SDS_P2;PMS_P1;PMS_P2;Temp;Humidity;BMP_temperature;BMP_pressure;BME280_temperature;BME280_humidity;BME280_pressure;Samples;Min_cycle;Max_cycle;Signal;HPM_P1;HPM_P2
2022/01/09 00:01:02;;;;;;;9.43;2.20;;;22.00;99.90;;;;;;5051778;28;20021;-72
2022/01/09 00:03:29;;;;;;;9.00;3.15;;;22.00;99.90;;;;;;5051476;28;20048;-69
2022/01/09 00:05:57;;;;;;;10.02;2.17;;;22.00;99.90;;;;;;5051875;28;20529;-69
2022/01/09 00:08:24;;;;;;;8.82;2.20;;;22.10;99.90;;;;;;5049991;28;20120;-69
2022/01/09 00:10:52;;;;;;;9.63;2.58;;;22.00;99.90;;;;;;5051895;28;20028;-69
2022/01/09 00:13:19;;;;;;;7.40;1.98;;;22.10;99.90;;;;;;5048062;28;20049;-71
2022/01/09 00:15:47;;;;;;;5.25;2.42;;;22.00;99.90;;;;;;5051474;28;20048;-70
2022/01/09 00:18:15;;;;;;;7.63;1.92;;;22.10;99.90;;;;;;5051619;28;20064;-69
2022/01/09 00:20:42;;;;;;;17.48;2.70;;;22.30;99.90;;;;;;5052027;28;20028;-70
2022/01/09 00:23:12;;;;;;;7.45;2.92;;;22.30;99.90;;;;;;5051384;28;20421;-70
2022/01/09 00:25:40;;;;;;;10.82;2.38;;;22.20;99.90;;;;;;5051492;28;20040;-70
2022/01/09 00:28:08;;;;;;;4.07;2.03;;;22.30;99.90;;;;;;5050713;28;20144;-72
2022/01/09 00:30:36;;;;;;;5.88;2.10;;;22.40;99.90;;;;;;5051136;28;20017;-73
2022/01/09 00:33:05;;;;;;;8.95;2.22;;;22.60;99.90;;;;;;5050293;28;20052;-70
2022/01/09 00:35:33;;;;;;;9.20;2.38;;;22.50;99.90;;;;;;5053501;28;20025;-71
2022/01/09 00:38:01;;;;;;;8.70;1.90;;;22.40;99.90;;;;;;5054270;28;20505;-70
2022/01/09 00:40:28;;;;;;;10.82;1.88;;;22.20;99.90;;;;;;5054755;28;20544;-73
2022/01/09 00:42:56;;;;;;;7.63;2.33;;;22.20;99.90;;;;;;5054556;28;20433;-72
2022/01/09 00:45:24;;;;;;;7.50;2.15;;;22.10;99.90;;;;;;5054770;28;20024;-76
2022/01/09 00:47:52;;;;;;;6.05;2.55;;;22.00;99.90;;;;;;5054027;28;20068;-71
2022/01/09 00:50:19;;;;;;;9.02;1.95;;;22.00;99.90;;;;;;5054960;28;20021;-72
2022/01/09 00:52:47;;;;;;;11.55;2.63;;;22.00;99.90;;;;;;5054851;28;20025;-72
2022/01/09 00:55:15;;;;;;;6.88;1.90;;;22.00;99.90;;;;;;5055217;28;20028;-74
2022/01/09 00:57:42;;;;;;;5.95;2.08;;;22.00;99.90;;;;;;5055233;28;20540;-73
2022/01/09 01:00:11;;;;;;;4.20;2.30;;;22.10;99.90;;;;;;5055277;28;20040;-73
2022/01/09 01:02:39;;;;;;;4.50;1.90;;;22.20;99.90;;;;;;5055363;28;20029;-70
2022/01/09 01:05:08;;;;;;;8.02;2.05;;;22.10;99.90;;;;;;5054751;28;20420;-74
2022/01/09 01:07:36;;;;;;;7.43;2.08;;;22.10;99.90;;;;;;5053682;28;20029;-74
2022/01/09 01:10:04;;;;;;;7.97;2.20;;;22.10;99.90;;;;;;5053412;28;20017;-71
2022/01/09 01:12:33;;;;;;;8.52;2.35;;;22.10;99.90;;;;;;5054510;28;20082;-71
2022/01/09 01:15:01;;;;;;;6.35;2.45;;;22.00;99.90;;;;;;5054244;28;20021;-73
2022/01/09 01:17:30;;;;;;;7.38;2.53;;;22.00;99.90;;;;;;5054642;28;20029;-70
2022/01/09 01:19:58;;;;;;;8.05;2.42;;;21.90;99.90;;;;;;5053725;28;20044;-72
2022/01/09 01:22:26;;;;;;;4.40;1.83;;;21.90;99.90;;;;;;5053213;28;20489;-73
2022/01/09 01:24:56;;;;;;;12.00;2.33;;;22.00;99.90;;;;;;5054423;28;20032;-70
2022/01/09 01:27:24;;;;;;;6.05;2.13;;;22.00;99.90;;;;;;5053953;28;20053;-72
2022/01/09 01:29:51;;;;;;;8.88;2.30;;;22.00;99.90;;;;;;5054339;28;20021;-72
2022/01/09 01:32:19;;;;;;;11.23;2.33;;;22.00;99.90;;;;;;5054388;28;20081;-69
2022/01/09 01:34:47;;;;;;;10.60;2.15;;;22.00;99.90;;;;;;5054639;28;20025;-71
2022/01/09 01:37:15;;;;;;;5.30;2.10;;;21.90;99.90;;;;;;5054732;28;20483;-69
2022/01/09 01:39:42;;;;;;;9.18;2.25;;;21.80;99.90;;;;;;5054487;28;20063;-70
2022/01/09 01:42:10;;;;;;;11.05;2.85;;;21.80;99.90;;;;;;5054332;28;20020;-75
2022/01/09 01:44:42;;;;;;;6.28;2.50;;;21.80;99.90;;;;;;5054586;28;20025;-74
2022/01/09 01:47:10;;;;;;;6.85;2.58;;;21.80;99.90;;;;;;5052444;28;20037;-75
2022/01/09 01:49:38;;;;;;;7.60;2.92;;;21.80;99.90;;;;;;5054180;28;20021;-73
2022/01/09 01:52:07;;;;;;;12.10;2.88;;;21.70;99.90;;;;;;5054263;28;20059;-72
2022/01/09 01:54:36;;;;;;;11.80;3.25;;;21.60;99.90;;;;;;5054310;28;20017;-72
2022/01/09 01:57:04;;;;;;;11.73;2.70;;;21.60;99.90;;;;;;5054647;28;20025;-76
2022/01/09 01:59:32;;;;;;;7.10;2.30;;;21.80;99.90;;;;;;5053597;28;20028;-76
2022/01/09 02:02:00;;;;;;;6.03;3.05;;;21.90;99.90;;;;;;5054174;28;20021;-71
2022/01/09 02:04:27;;;;;;;7.13;2.80;;;22.20;99.90;;;;;;5054081;28;20061;-74
2022/01/09 02:06:57;;;;;;;7.63;3.10;;;22.30;99.90;;;;;;5051895;28;20352;-74
2022/01/09 02:09:25;;;;;;;5.78;2.60;;;22.70;99.90;;;;;;5053221;28;20033;-72
2022/01/09 02:11:52;;;;;;;8.60;3.03;;;22.70;99.90;;;;;;5051885;28;20359;-71
2022/01/09 02:14:20;;;;;;;5.03;2.20;;;22.70;99.90;;;;;;5050696;28;20021;-71
2022/01/09 02:16:50;;;;;;;7.50;2.60;;;22.70;99.90;;;;;;5050795;28;20108;-73
2022/01/09 02:19:21;;;;;;;10.02;2.58;;;22.60;99.90;;;;;;5050863;28;20044;-71
2022/01/09 02:21:49;;;;;;;10.60;2.25;;;22.60;99.90;;;;;;5050651;28;20035;-72
2022/01/09 02:24:18;;;;;;;5.95;2.50;;;22.50;99.90;;;;;;5050769;28;20013;-75
2022/01/09 02:26:45;;;;;;;7.78;2.80;;;22.40;99.90;;;;;;5051871;28;20041;-71
2022/01/09 02:29:13;;;;;;;5.65;2.13;;;22.40;99.90;;;;;;5053994;28;20120;-73
2022/01/09 02:31:42;;;;;;;7.45;3.15;;;22.20;99.90;;;;;;5054183;28;20013;-72
2022/01/09 02:34:10;;;;;;;7.60;2.55;;;22.00;99.90;;;;;;5054119;28;20374;-72
2022/01/09 02:36:38;;;;;;;6.38;2.53;;;21.90;99.90;;;;;;5054105;28;20067;-72
2022/01/09 02:39:06;;;;;;;10.45;2.92;;;21.90;99.90;;;;;;5053809;28;20037;-76
2022/01/09 02:41:34;;;;;;;6.45;2.88;;;21.90;99.90;;;;;;5053814;28;20059;-73
2022/01/09 02:44:08;;;;;;;8.27;2.97;;;21.80;99.90;;;;;;5054002;28;20024;-75
2022/01/09 02:49:08;;;;;;;10.63;3.42;;;21.70;99.90;;;;;;5053848;28;20071;-73
2022/01/09 02:51:39;;;;;;;10.20;3.95;;;21.70;99.90;;;;;;5053831;28;20347;-74
2022/01/09 02:55:06;;;;;;;13.70;3.47;;;21.70;99.90;;;;;;5053777;28;20036;-70
2022/01/09 02:57:00;;;;;;;12.15;3.42;;;21.60;99.90;;;;;;5053074;28;20029;-71
2022/01/09 02:59:28;;;;;;;8.45;3.00;;;21.60;99.90;;;;;;5053556;28;20028;-75
2022/01/09 03:01:55;;;;;;;4.90;2.42;;;21.60;99.90;;;;;;5052221;28;20437;-71
2022/01/09 03:04:23;;;;;;;9.98;3.30;;;21.50;99.90;;;;;;5053664;28;20025;-74
2022/01/09 03:06:51;;;;;;;9.55;2.95;;;21.30;99.90;;;;;;5053495;28;20040;-76
2022/01/09 03:09:18;;;;;;;7.18;2.90;;;21.30;99.90;;;;;;5053993;28;20104;-74
2022/01/09 03:11:47;;;;;;;9.57;3.40;;;21.30;99.90;;;;;;5053646;28;20355;-74
2022/01/09 03:14:15;;;;;;;11.30;3.47;;;21.20;99.90;;;;;;5053364;28;20032;-74
2022/01/09 03:16:42;;;;;;;6.10;3.28;;;21.30;99.90;;;;;;5053334;28;20091;-71
2022/01/09 03:19:10;;;;;;;10.50;3.38;;;21.30;99.90;;;;;;5053462;28;20029;-74
2022/01/09 03:21:38;;;;;;;13.50;3.80;;;21.40;99.90;;;;;;5053335;28;20082;-72
2022/01/09 03:24:06;;;;;;;7.78;3.88;;;21.40;99.90;;;;;;5053490;28;20037;-72
2022/01/09 03:26:33;;;;;;;11.85;3.15;;;21.40;99.90;;;;;;5052847;28;20056;-75
2022/01/09 03:29:01;;;;;;;7.32;3.10;;;21.50;99.90;;;;;;5053240;28;20033;-69
2022/01/09 03:31:29;;;;;;;8.20;3.22;;;21.30;99.90;;;;;;5053060;28;20117;-71
2022/01/09 03:33:56;;;;;;;5.72;3.17;;;21.40;99.90;;;;;;5053328;28;20024;-74
2022/01/09 03:36:24;;;;;;;6.22;2.60;;;21.40;99.90;;;;;;5053273;28;20021;-70
2022/01/09 03:38:52;;;;;;;7.80;3.25;;;21.40;99.90;;;;;;5053063;28;20452;-74
2022/01/09 03:41:19;;;;;;;12.15;3.30;;;21.40;99.90;;;;;;5053114;28;20059;-71
2022/01/09 03:43:47;;;;;;;8.02;2.72;;;21.40;99.90;;;;;;5053215;28;20033;-71
2022/01/09 03:46:15;;;;;;;9.05;3.58;;;21.50;99.90;;;;;;5053176;28;20021;-72
2022/01/09 03:48:42;;;;;;;6.07;3.00;;;21.60;99.90;;;;;;5052990;28;20071;-75
2022/01/09 03:51:11;;;;;;;5.68;2.50;;;21.80;99.90;;;;;;5053131;28;20025;-76
2022/01/09 03:53:39;;;;;;;8.52;3.70;;;21.70;99.90;;;;;;5052945;28;20363;-74
2022/01/09 03:56:07;;;;;;;8.63;3.13;;;21.80;99.90;;;;;;5053009;28;20078;-69
2022/01/09 03:58:36;;;;;;;6.70;2.85;;;21.60;99.90;;;;;;5053152;28;20017;-74
2022/01/09 04:01:08;;;;;;;7.72;2.58;;;21.60;99.90;;;;;;5053132;28;20017;-75
2022/01/09 04:03:36;;;;;;;11.48;2.83;;;21.70;99.90;;;;;;5052959;28;20405;-76
2022/01/09 04:06:04;;;;;;;10.50;2.90;;;21.70;99.90;;;;;;5052901;28;20385;-75
2022/01/09 04:08:34;;;;;;;9.82;3.78;;;21.80;99.90;;;;;;5053077;28;20041;-75
2022/01/09 04:11:05;;;;;;;8.70;2.72;;;21.90;99.90;;;;;;5056632;28;20021;-71
2022/01/09 04:13:33;;;;;;;9.27;2.00;;;21.90;99.90;;;;;;5056833;28;20053;-73
2022/01/09 04:16:01;;;;;;;5.85;2.38;;;21.90;99.90;;;;;;5057101;28;20100;-69
2022/01/09 04:18:28;;;;;;;10.40;3.00;;;21.80;99.90;;;;;;5056563;28;20478;-70
2022/01/09 04:20:56;;;;;;;14.00;3.05;;;21.90;99.90;;;;;;5056538;28;20029;-70
2022/01/09 04:23:24;;;;;;;9.85;3.33;;;22.00;99.90;;;;;;5056844;28;20032;-70
2022/01/09 04:25:53;;;;;;;5.53;2.35;;;22.20;99.90;;;;;;5056348;28;20393;-70
2022/01/09 04:28:20;;;;;;;5.43;2.45;;;22.30;99.90;;;;;;5056596;28;20025;-69
2022/01/09 04:30:48;;;;;;;7.30;2.67;;;22.60;99.90;;;;;;5056117;28;20029;-70
2022/01/09 04:33:16;;;;;;;8.60;2.38;;;22.80;99.90;;;;;;5056488;28;20029;-75
2022/01/09 04:35:44;;;;;;;7.40;2.63;;;22.80;99.90;;;;;;5056435;28;20021;-69
2022/01/09 04:38:12;;;;;;;7.53;2.38;;;22.80;99.90;;;;;;5039216;28;20116;-69
2022/01/09 04:40:39;;;;;;;10.57;2.92;;;22.80;99.90;;;;;;5037074;28;20029;-69
2022/01/09 04:43:09;;;;;;;12.27;2.67;;;22.60;99.90;;;;;;5036302;28;20026;-77
2022/01/09 04:45:37;;;;;;;7.82;2.13;;;22.50;99.90;;;;;;5036505;28;20056;-70
2022/01/09 04:48:08;;;;;;;11.20;3.22;;;22.60;99.90;;;;;;5033760;28;20033;-76
2022/01/09 04:50:36;;;;;;;15.52;2.58;;;22.60;99.90;;;;;;5034619;28;20427;-72
2022/01/09 04:53:07;;;;;;;6.05;2.10;;;22.70;99.90;;;;;;5034507;28;20474;-69
2022/01/09 04:55:38;;;;;;;6.57;2.83;;;22.70;99.90;;;;;;5042206;28;20477;-69
2022/01/09 04:58:06;;;;;;;11.90;2.58;;;22.60;99.90;;;;;;5043095;28;20460;-73
2022/01/09 05:00:34;;;;;;;8.73;3.10;;;22.60;99.90;;;;;;5042466;28;20029;-73
2022/01/09 05:03:02;;;;;;;7.18;2.97;;;22.60;99.90;;;;;;5050871;28;20038;-69
2022/01/09 05:05:30;;;;;;;8.07;2.72;;;22.50;99.90;;;;;;5043171;28;20032;-75
2022/01/09 05:07:58;;;;;;;14.90;2.63;;;22.40;99.90;;;;;;5043172;28;20124;-70
2022/01/09 05:10:26;;;;;;;11.95;3.10;;;22.40;99.90;;;;;;5042774;28;20051;-74
2022/01/09 05:12:53;;;;;;;7.72;2.72;;;22.30;99.90;;;;;;5042152;28;20024;-69
2022/01/09 05:15:23;;;;;;;13.82;3.75;;;22.20;99.90;;;;;;5044812;28;20025;-69
2022/01/09 05:17:53;;;;;;;10.77;2.70;;;22.20;99.90;;;;;;5049822;28;20021;-75
2022/01/09 05:20:21;;;;;;;7.00;2.75;;;22.30;99.90;;;;;;5049641;28;20074;-69
2022/01/09 05:22:49;;;;;;;10.57;3.60;;;22.20;99.90;;;;;;5049107;28;20098;-70
2022/01/09 05:25:16;;;;;;;9.45;3.15;;;22.20;99.90;;;;;;5049867;28;20374;-70
2022/01/09 05:27:44;;;;;;;13.98;3.83;;;22.20;99.90;;;;;;5038147;28;20041;-71
2022/01/09 05:30:12;;;;;;;8.20;2.88;;;22.20;99.90;;;;;;5034751;28;20021;-71
2022/01/09 05:32:39;;;;;;;10.07;2.67;;;22.20;99.90;;;;;;5036891;28;20025;-75
2022/01/09 05:35:08;;;;;;;5.55;1.98;;;22.20;99.90;;;;;;5034619;28;20025;-75
2022/01/09 05:37:35;;;;;;;11.30;3.28;;;22.20;99.90;;;;;;5034365;28;20025;-70
2022/01/09 05:40:03;;;;;;;7.00;2.42;;;22.30;99.90;;;;;;5034436;28;20100;-70
2022/01/09 05:42:31;;;;;;;10.00;3.17;;;22.40;99.90;;;;;;5034317;28;20021;-70
2022/01/09 05:44:59;;;;;;;10.20;2.83;;;22.50;99.90;;;;;;5046129;28;20024;-73
2022/01/09 05:47:26;;;;;;;15.25;2.85;;;22.50;99.90;;;;;;5053219;28;20025;-70
2022/01/09 05:49:54;;;;;;;5.28;2.47;;;22.40;99.90;;;;;;5050540;28;20553;-73
2022/01/09 05:52:22;;;;;;;14.57;2.72;;;22.50;99.90;;;;;;5053152;28;20477;-69
2022/01/09 05:54:49;;;;;;;3.88;2.20;;;22.50;99.90;;;;;;5053192;28;20021;-73
2022/01/09 05:57:17;;;;;;;5.28;2.13;;;22.40;99.90;;;;;;5052989;28;20470;-74
2022/01/09 05:59:45;;;;;;;9.60;3.20;;;22.40;99.90;;;;;;5053271;28;20053;-69
2022/01/09 06:02:12;;;;;;;15.40;3.00;;;22.40;99.90;;;;;;5042355;28;20017;-74
2022/01/09 06:04:40;;;;;;;7.97;2.28;;;22.40;99.90;;;;;;5033879;28;20395;-70
2022/01/09 06:07:08;;;;;;;6.65;1.85;;;22.40;99.90;;;;;;5052905;28;20112;-72
2022/01/09 06:09:35;;;;;;;6.15;2.20;;;22.30;99.90;;;;;;5052607;28;20015;-69
2022/01/09 06:12:03;;;;;;;9.38;2.80;;;22.30;99.90;;;;;;5053646;28;20025;-69
2022/01/09 06:14:31;;;;;;;8.02;2.83;;;22.30;99.90;;;;;;5053598;28;20017;-72
2022/01/09 06:16:58;;;;;;;8.00;1.85;;;22.30;99.90;;;;;;5035157;28;20026;-70
2022/01/09 06:19:26;;;;;;;4.90;2.13;;;22.30;99.90;;;;;;5032919;28;20025;-72
2022/01/09 06:21:54;;;;;;;18.35;2.67;;;22.30;99.90;;;;;;5049968;28;20096;-75
2022/01/09 06:24:21;;;;;;;8.90;2.70;;;22.30;99.90;;;;;;5052721;28;20051;-76
2022/01/09 06:26:49;;;;;;;9.05;2.63;;;22.20;99.90;;;;;;5041409;28;20053;-76
2022/01/09 06:29:19;;;;;;;14.02;2.35;;;22.20;99.90;;;;;;5033242;28;20485;-78
2022/01/09 06:31:46;;;;;;;8.02;2.17;;;22.10;99.90;;;;;;5032686;28;20089;-75
2022/01/09 06:34:14;;;;;;;8.15;2.35;;;22.10;99.90;;;;;;5050256;28;20468;-69
2022/01/09 06:36:42;;;;;;;4.55;1.92;;;22.20;99.90;;;;;;5052770;28;20028;-76
2022/01/09 06:39:10;;;;;;;9.32;2.50;;;22.10;99.90;;;;;;5053120;28;20021;-75
2022/01/09 06:41:38;;;;;;;13.75;3.35;;;22.10;99.90;;;;;;5052968;28;20397;-74
2022/01/09 06:44:05;;;;;;;6.35;2.22;;;22.10;99.90;;;;;;5052813;28;20446;-73
2022/01/09 06:46:33;;;;;;;9.43;2.25;;;22.10;99.90;;;;;;5046801;28;20347;-72
2022/01/09 06:49:02;;;;;;;3.67;1.70;;;22.00;99.90;;;;;;5033129;28;20058;-74
2022/01/09 06:51:30;;;;;;;5.43;2.95;;;22.00;99.90;;;;;;5048187;28;20029;-75
2022/01/09 06:53:57;;;;;;;9.35;2.28;;;22.00;99.90;;;;;;5033104;28;20056;-76
2022/01/09 06:56:25;;;;;;;4.38;2.47;;;22.00;99.90;;;;;;5033060;28;20100;-77
2022/01/09 06:58:53;;;;;;;13.75;3.28;;;22.00;99.90;;;;;;5032719;28;20025;-75
2022/01/09 07:01:20;;;;;;;8.10;2.20;;;22.00;99.90;;;;;;5032807;28;20442;-75
2022/01/09 07:03:48;;;;;;;6.38;2.08;;;22.10;99.90;;;;;;5032741;28;20021;-76
2022/01/09 07:06:16;;;;;;;6.75;2.10;;;22.10;99.90;;;;;;5050296;28;20017;-69
2022/01/09 07:08:43;;;;;;;13.88;2.53;;;22.10;99.90;;;;;;5052599;28;20040;-75
2022/01/09 07:11:11;;;;;;;6.28;1.80;;;22.20;99.90;;;;;;5051104;28;20409;-74
2022/01/09 07:13:39;;;;;;;7.15;1.95;;;22.30;99.90;;;;;;5052454;28;20484;-76
2022/01/09 07:16:07;;;;;;;6.85;1.90;;;22.30;99.90;;;;;;5033768;28;20017;-76
2022/01/09 07:18:35;;;;;;;10.98;1.63;;;22.30;99.90;;;;;;5039037;28;20021;-76
2022/01/09 07:21:03;;;;;;;9.65;1.70;;;22.20;99.90;;;;;;5052350;28;20021;-76
2022/01/09 07:23:31;;;;;;;6.25;2.30;;;22.20;99.90;;;;;;5044068;28;20101;-76
2022/01/09 07:25:59;;;;;;;7.57;2.28;;;22.20;99.90;;;;;;5032392;28;20022;-77
2022/01/09 07:28:27;;;;;;;10.30;2.22;;;22.20;99.90;;;;;;5032563;28;20075;-77
2022/01/09 07:30:55;;;;;;;5.82;1.65;;;22.20;99.90;;;;;;5032361;28;20018;-76
2022/01/09 07:33:23;;;;;;;10.10;2.15;;;22.20;99.90;;;;;;5058146;28;20029;-70
2022/01/09 07:35:50;;;;;;;10.30;2.75;;;22.20;99.90;;;;;;5052299;28;20501;-76
2022/01/09 07:38:18;;;;;;;8.23;2.13;;;22.20;99.90;;;;;;5037520;28;20067;-76
2022/01/09 07:40:47;;;;;;;6.70;2.13;;;22.20;99.90;;;;;;5032537;28;20035;-76
2022/01/09 07:43:15;;;;;;;11.85;2.78;;;22.20;99.90;;;;;;5033480;28;20022;-69
2022/01/09 07:45:43;;;;;;;8.73;1.80;;;22.20;99.90;;;;;;5036730;28;20499;-70
2022/01/09 07:48:10;;;;;;;7.97;2.38;;;22.20;99.90;;;;;;5036419;28;20044;-69
2022/01/09 07:50:38;;;;;;;6.72;1.90;;;22.20;99.90;;;;;;5040548;28;20096;-70
2022/01/09 07:53:06;;;;;;;8.40;1.83;;;22.20;99.90;;;;;;5055900;28;20017;-72
2022/01/09 07:55:34;;;;;;;9.40;2.15;;;22.20;99.90;;;;;;5056725;28;20028;-75
2022/01/09 07:58:02;;;;;;;7.13;2.30;;;22.10;99.90;;;;;;5038199;28;20478;-75
2022/01/09 08:00:29;;;;;;;9.05;2.40;;;22.10;99.90;;;;;;5036320;28;20025;-74
2022/01/09 08:02:57;;;;;;;6.85;2.22;;;22.10;99.90;;;;;;5036330;28;20025;-74
2022/01/09 08:05:25;;;;;;;11.98;2.55;;;22.10;99.90;;;;;;5036478;28;20045;-72
2022/01/09 08:07:53;;;;;;;5.85;2.30;;;22.10;99.90;;;;;;5054698;28;20052;-70
2022/01/09 08:10:21;;;;;;;4.90;1.60;;;22.10;99.90;;;;;;5051993;28;20017;-77
2022/01/09 08:12:48;;;;;;;3.60;1.70;;;22.10;99.90;;;;;;5037495;28;20033;-73
2022/01/09 08:15:16;;;;;;;20.02;2.55;;;22.00;99.90;;;;;;5036481;28;20024;-72
2022/01/09 08:17:45;;;;;;;10.80;2.40;;;22.00;99.90;;;;;;5037501;28;20025;-71
2022/01/09 08:20:15;;;;;;;8.77;2.60;;;21.90;99.90;;;;;;5045638;28;20024;-71
2022/01/09 08:22:43;;;;;;;6.30;2.00;;;21.90;99.90;;;;;;5039602;28;21074;-76
2022/01/09 08:25:12;;;;;;;7.10;2.33;;;21.90;99.90;;;;;;5046170;28;20040;-75
2022/01/09 08:27:40;;;;;;;9.65;2.67;;;21.90;99.90;;;;;;5054086;28;20099;-75
2022/01/09 08:30:09;;;;;;;4.93;2.30;;;21.80;99.90;;;;;;5041799;28;20021;-75
2022/01/09 08:32:37;;;;;;;10.02;2.40;;;21.80;99.90;;;;;;5033503;28;20031;-75
2022/01/09 08:35:06;;;;;;;9.13;2.05;;;21.80;99.90;;;;;;5034120;28;20056;-78
2022/01/09 08:37:34;;;;;;;5.63;1.55;;;21.70;99.90;;;;;;5033702;28;20112;-70
2022/01/09 08:40:03;;;;;;;10.02;2.25;;;21.80;99.90;;;;;;5039975;28;20101;-70
2022/01/09 08:42:30;;;;;;;10.02;2.65;;;21.70;99.90;;;;;;5052122;28;20382;-74
2022/01/09 08:44:58;;;;;;;8.70;2.38;;;21.70;99.90;;;;;;5052564;28;20017;-70
2022/01/09 08:47:26;;;;;;;9.55;2.78;;;21.70;99.90;;;;;;5054207;28;20031;-70
2022/01/09 08:49:53;;;;;;;9.43;2.25;;;21.70;99.90;;;;;;5054376;28;20083;-72
2022/01/09 08:52:21;;;;;;;5.22;2.35;;;21.70;99.90;;;;;;5055456;28;20028;-74
2022/01/09 08:54:50;;;;;;;7.63;2.30;;;21.70;99.90;;;;;;5055068;28;20021;-75
2022/01/09 08:57:18;;;;;;;5.05;1.77;;;21.70;99.90;;;;;;5055576;28;20025;-71
2022/01/09 08:59:46;;;;;;;7.47;2.45;;;21.70;99.90;;;;;;5053632;28;20035;-71
2022/01/09 09:02:14;;;;;;;4.90;2.58;;;21.70;99.90;;;;;;5055595;28;20027;-70
2022/01/09 09:04:42;;;;;;;7.15;2.50;;;21.60;99.90;;;;;;5055333;28;20025;-70
2022/01/09 09:07:10;;;;;;;5.80;2.80;;;21.60;99.90;;;;;;5055501;28;20025;-71
2022/01/09 09:09:38;;;;;;;8.68;2.65;;;21.60;99.90;;;;;;5054759;28;20037;-70
2022/01/09 09:12:06;;;;;;;7.07;2.40;;;21.60;99.90;;;;;;5055401;28;20028;-72
2022/01/09 09:14:34;;;;;;;12.85;3.40;;;21.60;99.90;;;;;;5055477;28;20032;-74
2022/01/09 09:17:02;;;;;;;7.60;2.40;;;21.60;99.90;;;;;;5054526;28;20104;-71
2022/01/09 09:19:30;;;;;;;8.30;3.13;;;21.50;99.90;;;;;;5054012;28;20035;-74
2022/01/09 09:21:58;;;;;;;14.63;3.05;;;21.60;99.90;;;;;;5054194;28;20029;-75
2022/01/09 09:24:26;;;;;;;4.55;2.40;;;21.50;99.90;;;;;;5053855;28;20025;-71
2022/01/09 09:26:53;;;;;;;13.00;3.47;;;21.50;99.90;;;;;;5057290;28;20524;-70
2022/01/09 09:29:21;;;;;;;7.80;2.53;;;21.50;99.90;;;;;;5055281;28;20028;-73
2022/01/09 09:31:49;;;;;;;12.57;3.00;;;21.50;99.90;;;;;;5054832;28;20013;-74
2022/01/09 09:34:17;;;;;;;9.18;3.38;;;21.50;99.90;;;;;;5053506;28;20029;-73
2022/01/09 09:36:44;;;;;;;5.18;2.65;;;21.50;99.90;;;;;;5053794;28;20474;-74
2022/01/09 09:39:14;;;;;;;9.60;2.38;;;21.40;99.90;;;;;;5053730;28;20025;-70
2022/01/09 09:41:41;;;;;;;9.48;2.13;;;21.50;99.90;;;;;;5051380;28;20018;-70
2022/01/09 09:44:12;;;;;;;7.78;3.08;;;21.40;99.90;;;;;;5053559;28;20036;-70
2022/01/09 09:46:39;;;;;;;12.32;3.05;;;21.40;99.90;;;;;;5054039;28;20028;-70
2022/01/09 09:49:07;;;;;;;6.40;2.80;;;21.40;99.90;;;;;;5054240;28;20020;-70
2022/01/09 09:51:35;;;;;;;9.35;3.70;;;21.40;99.90;;;;;;5053696;28;20432;-70
2022/01/09 09:54:03;;;;;;;13.88;3.42;;;21.40;99.90;;;;;;5053989;28;20021;-71
2022/01/09 09:56:31;;;;;;;10.95;3.85;;;21.40;99.90;;;;;;5054081;28;20040;-72
2022/01/09 09:59:00;;;;;;;10.57;3.50;;;21.40;99.90;;;;;;5053985;28;20436;-71
2022/01/09 10:01:34;;;;;;;8.48;2.75;;;21.40;99.90;;;;;;5053916;28;20052;-74
2022/01/09 10:04:05;;;;;;;12.43;3.47;;;21.40;99.90;;;;;;5052056;28;20104;-73
2022/01/09 10:06:42;;;;;;;18.00;3.15;;;21.40;99.90;;;;;;5048046;28;20082;-70
2022/01/09 10:09:12;;;;;;;13.93;3.85;;;21.40;99.90;;;;;;5033878;28;20056;-72
2022/01/09 10:12:00;;;;;;;10.32;3.78;;;21.40;99.90;;;;;;5033564;28;20431;-75
2022/01/09 10:14:31;;;;;;;8.63;3.78;;;21.30;99.90;;;;;;5034106;28;20482;-75
2022/01/09 10:17:20;;;;;;;11.25;4.18;;;21.30;99.90;;;;;;5048873;28;20489;-74
2022/01/09 10:19:55;;;;;;;12.57;4.38;;;21.30;99.90;;;;;;5053028;28;20021;-73
2022/01/09 10:22:43;;;;;;;11.00;3.90;;;21.30;99.90;;;;;;5053590;28;20021;-71
2022/01/09 10:25:28;;;;;;;7.85;4.25;;;21.30;99.90;;;;;;5053302;28;20083;-71
2022/01/09 10:28:21;;;;;;;12.75;3.83;;;21.30;99.90;;;;;;5053394;28;20037;-70
2022/01/09 10:30:51;;;;;;;15.13;3.97;;;21.30;99.90;;;;;;5035634;28;20421;-74
2022/01/09 10:33:21;;;;;;;8.23;3.78;;;21.30;99.90;;;;;;5052894;28;20389;-75
2022/01/09 10:35:50;;;;;;;7.70;4.00;;;21.30;99.90;;;;;;5052948;28;20024;-70
2022/01/09 10:38:30;;;;;;;8.43;5.00;;;21.30;99.90;;;;;;5053238;28;20092;-71
2022/01/09 10:41:03;;;;;;;15.02;4.53;;;21.30;99.90;;;;;;5052114;28;20094;-73
2022/01/09 10:43:37;;;;;;;7.43;3.72;;;21.30;99.90;;;;;;5052412;28;20021;-73
2022/01/09 10:46:05;;;;;;;17.05;5.22;;;21.30;99.90;;;;;;5052719;28;20033;-70
2022/01/09 10:48:39;;;;;;;18.83;6.20;;;21.30;99.90;;;;;;5052123;28;20473;-75
2022/01/09 10:51:10;;;;;;;11.25;5.25;;;21.30;99.90;;;;;;5052849;28;20031;-75
2022/01/09 10:53:40;;;;;;;22.38;6.30;;;21.30;99.90;;;;;;5052913;28;20025;-71
2022/01/09 10:56:20;;;;;;;22.92;6.22;;;21.40;99.90;;;;;;5052689;28;20013;-70
2022/01/09 10:58:49;;;;;;;16.77;6.88;;;21.40;99.90;;;;;;5052824;28;20121;-70
2022/01/09 11:01:27;;;;;;;15.27;6.82;;;21.40;99.90;;;;;;5051292;28;20017;-72
2022/01/09 11:04:06;;;;;;;22.80;7.03;;;21.30;99.90;;;;;;5052130;28;20036;-70
2022/01/09 11:06:38;;;;;;;18.35;6.40;;;21.40;99.90;;;;;;5052468;28;20017;-70
2022/01/09 11:09:08;;;;;;;16.98;6.47;;;21.40;99.90;;;;;;5052197;28;20031;-71
2022/01/09 11:11:38;;;;;;;9.57;5.55;;;21.40;99.90;;;;;;5052543;28;20033;-70
2022/01/09 11:14:16;;;;;;;17.33;6.53;;;21.40;99.90;;;;;;5050511;28;20474;-70
2022/01/09 11:16:54;;;;;;;11.35;7.57;;;21.40;99.90;;;;;;5051314;28;20062;-71
2022/01/09 11:19:26;;;;;;;13.50;7.07;;;21.40;99.90;;;;;;5051691;28;20036;-71
2022/01/09 11:22:02;;;;;;;11.20;6.80;;;21.40;99.90;;;;;;5051805;28;20021;-72
2022/01/09 11:24:51;;;;;;;15.98;7.38;;;21.40;99.90;;;;;;5034306;28;20821;-73
2022/01/09 11:27:19;;;;;;;18.95;8.30;;;21.40;99.90;;;;;;5050058;28;20140;-74
2022/01/09 11:30:07;;;;;;;15.57;7.65;;;21.40;99.90;;;;;;5051797;28;20110;-75
2022/01/09 11:32:52;;;;;;;16.70;8.13;;;21.40;99.90;;;;;;5053170;28;20445;-73
2022/01/09 11:35:45;;;;;;;17.52;7.25;;;21.40;99.90;;;;;;5053095;28;20029;-75
2022/01/09 11:38:31;;;;;;;21.23;8.70;;;21.40;99.90;;;;;;5051119;28;20033;-75
2022/01/09 11:41:18;;;;;;;16.63;8.30;;;21.40;99.90;;;;;;5052085;28;20060;-77
2022/01/09 11:44:00;;;;;;;23.45;9.20;;;21.40;99.90;;;;;;5052157;28;20095;-74
2022/01/09 11:46:32;;;;;;;21.38;8.57;;;21.40;99.90;;;;;;5051671;28;20021;-73
2022/01/09 11:49:04;;;;;;;17.45;8.38;;;21.40;99.90;;;;;;5051500;28;20386;-74
2022/01/09 11:51:34;;;;;;;17.83;9.23;;;21.40;99.90;;;;;;5051404;28;20053;-74
2022/01/09 11:54:15;;;;;;;14.30;8.52;;;21.40;99.90;;;;;;5052197;28;20021;-70
2022/01/09 11:56:58;;;;;;;17.35;8.68;;;21.40;99.90;;;;;;5051699;28;20025;-75
2022/01/09 11:59:35;;;;;;;19.33;7.53;;;21.40;99.90;;;;;;5052238;28;20481;-75
2022/01/09 12:02:07;;;;;;;30.15;9.52;;;21.40;99.90;;;;;;5052045;28;20025;-72
2022/01/09 12:04:34;;;;;;;16.38;9.32;;;21.40;99.90;;;;;;5051778;28;20017;-73
2022/01/09 12:07:09;;;;;;;25.88;9.85;;;21.40;99.90;;;;;;5051540;28;20492;-73
2022/01/09 12:09:41;;;;;;;26.90;8.85;;;21.40;99.90;;;;;;5052101;28;20039;-74
2022/01/09 12:12:10;;;;;;;29.70;8.80;;;21.40;99.90;;;;;;5051832;28;20191;-75
2022/01/09 12:14:56;;;;;;;20.85;9.05;;;21.40;99.90;;;;;;5051893;28;20446;-75
2022/01/09 12:17:25;;;;;;;21.63;8.85;;;21.50;99.90;;;;;;5051595;28;20027;-73
2022/01/09 12:20:14;;;;;;;18.67;10.50;;;21.40;99.90;;;;;;5050046;28;20067;-73
2022/01/09 12:25:24;;;;;;;24.83;9.30;;;21.40;99.90;;;;;;5051621;28;20029;-74
2022/01/09 12:28:03;;;;;;;19.80;8.38;;;21.40;99.90;;;;;;5052398;28;20100;-73
2022/01/09 12:30:34;;;;;;;15.50;9.25;;;21.50;99.90;;;;;;5053900;28;20181;-73
2022/01/09 12:33:25;;;;;;;12.75;8.27;;;21.50;99.90;;;;;;5057050;28;20097;-74
2022/01/09 12:35:57;;;;;;;8.00;6.88;;;21.50;99.90;;;;;;5045949;28;20037;-74
2022/01/09 12:38:28;;;;;;;7.80;6.30;;;21.50;99.90;;;;;;5056460;28;20025;-76
2022/01/09 12:41:09;;;;;;;8.60;6.47;;;21.50;99.90;;;;;;5056582;28;20036;-78
2022/01/09 12:43:38;;;;;;;13.68;5.47;;;21.40;99.90;;;;;;5056396;28;20063;-78
2022/01/09 12:46:14;;;;;;;7.95;6.03;;;21.50;99.90;;;;;;5056430;28;20029;-76
2022/01/09 12:48:41;;;;;;;13.40;5.65;;;21.50;99.90;;;;;;5055869;28;20029;-79
2022/01/09 12:51:14;;;;;;;13.93;5.63;;;21.50;99.90;;;;;;5056040;28;20019;-77
2022/01/09 12:53:48;;;;;;;13.43;6.25;;;21.50;99.90;;;;;;5056122;28;20021;-76
2022/01/09 12:56:17;;;;;;;10.23;5.90;;;21.50;99.90;;;;;;5056062;28;20032;-75
2022/01/09 12:58:49;;;;;;;8.85;6.05;;;21.50;99.90;;;;;;5056146;28;20470;-78
2022/01/09 13:01:21;;;;;;;14.52;5.30;;;21.50;99.90;;;;;;5056051;28;20355;-78